Time;durP1;ratioP1;P1;durP2;ratioP2;P2;SDS_P1;SDS_P2;PMS_P1;PMS_P2;Temp;Humidity;BMP_temperature;BMP_pressure;BME280_temperature;BME280_humidity;BME280_pressure;Samples;Min_cycle;Max_cycle;Signal;HPM_P1;HPM_P2
2023/12/31 00:00:45;;;;;;;10.32;8.55;;;23.10;65.50;;;;;;6219219;28;89126;-62
2023/12/31 00:03:47;;;;;;;9.55;8.63;;;23.10;65.50;;;;;;6228760;28;89094;-62
2023/12/31 00:06:49;;;;;;;9.65;8.65;;;23.00;65.40;;;;;;6223035;28;88522;-62
2023/12/31 00:09:51;;;;;;;9.75;8.75;;;23.00;65.40;;;;;;6233896;28;89446;-62
2023/12/31 00:12:53;;;;;;;9.63;8.63;;;23.00;65.40;;;;;;6222090;28;88495;-62
2023/12/31 00:15:56;;;;;;;10.30;9.30;;;23.00;65.40;;;;;;6218035;28;89116;-61
2023/12/31 00:18:58;;;;;;;9.23;8.32;;;23.00;65.50;;;;;;6226786;28;88978;-62
2023/12/31 00:22:00;;;;;;;10.45;9.35;;;22.90;65.30;;;;;;6226812;28;89953;-62
2023/12/31 00:25:02;;;;;;;9.65;8.60;;;22.90;65.50;;;;;;6225110;28;89031;-62
2023/12/31 00:28:04;;;;;;;9.32;8.43;;;22.90;65.50;;;;;;6224809;28;88483;-62
2023/12/31 00:31:07;;;;;;;10.50;9.05;;;22.90;65.50;;;;;;6219163;28;89061;-62
2023/12/31 00:34:10;;;;;;;9.82;8.82;;;22.90;65.40;;;;;;6230444;28;89516;-62
2023/12/31 00:37:12;;;;;;;9.65;8.75;;;22.90;65.50;;;;;;6225720;28;89114;-62
2023/12/31 00:40:14;;;;;;;10.85;9.57;;;22.90;65.50;;;;;;6209008;28;89108;-62
2023/12/31 00:43:16;;;;;;;10.00;9.00;;;22.90;65.60;;;;;;6220022;28;88231;-62
2023/12/31 00:46:20;;;;;;;9.70;8.80;;;22.80;65.60;;;;;;6230305;28;90125;-62
2023/12/31 00:49:22;;;;;;;9.20;8.30;;;22.80;65.60;;;;;;6213998;28;88931;-62
2023/12/31 00:52:24;;;;;;;10.15;9.15;;;22.80;65.90;;;;;;6223620;28;89817;-62
2023/12/31 00:55:26;;;;;;;9.40;8.40;;;22.80;66.10;;;;;;6231015;28;89067;-62
2023/12/31 00:58:28;;;;;;;10.02;8.93;;;22.80;66.30;;;;;;6222036;28;89060;-62
2023/12/31 01:01:31;;;;;;;10.02;8.77;;;22.80;66.50;;;;;;6223987;28;88744;-62
2023/12/31 01:04:33;;;;;;;9.77;8.77;;;22.80;66.50;;;;;;6225120;28;90210;-62
2023/12/31 01:07:35;;;;;;;9.60;8.70;;;22.80;66.60;;;;;;6213655;28;89033;-62
2023/12/31 01:10:37;;;;;;;9.27;8.38;;;22.80;66.80;;;;;;6223197;28;89415;-62
2023/12/31 01:13:39;;;;;;;10.05;8.55;;;22.80;66.90;;;;;;6232625;27;88361;-62
2023/12/31 01:16:43;;;;;;;9.45;8.45;;;22.80;67.00;;;;;;6223537;28;89063;-62
2023/12/31 01:19:45;;;;;;;10.43;9.43;;;22.80;67.10;;;;;;6225561;28;88957;-62
2023/12/31 01:22:47;;;;;;;9.80;8.80;;;22.80;67.10;;;;;;6226651;28;89990;-62
2023/12/31 01:25:49;;;;;;;9.70;8.68;;;22.80;67.20;;;;;;6227169;28;88703;-62
2023/12/31 01:28:51;;;;;;;9.60;8.70;;;22.80;67.20;;;;;;6227162;28;89176;-62
2023/12/31 01:31:55;;;;;;;9.43;8.43;;;22.80;67.20;;;;;;6227707;28;88988;-62
2023/12/31 01:34:58;;;;;;;9.55;8.60;;;22.70;67.30;;;;;;6227700;28;89057;-62
2023/12/31 01:38:00;;;;;;;10.00;8.40;;;22.70;67.40;;;;;;6224720;28;89156;-62
2023/12/31 01:41:07;;;;;;;9.02;8.13;;;22.70;67.40;;;;;;6227401;28;89081;-62
2023/12/31 01:44:09;;;;;;;10.40;8.70;;;22.70;67.70;;;;;;6231604;28;89623;-62
2023/12/31 01:47:13;;;;;;;9.35;8.38;;;22.70;67.60;;;;;;6224058;28;89093;-62
2023/12/31 01:50:15;;;;;;;9.30;8.43;;;22.70;67.70;;;;;;6231060;28;89279;-62
2023/12/31 01:53:19;;;;;;;9.38;8.48;;;22.70;67.80;;;;;;6226888;28;89074;-62
2023/12/31 01:56:21;;;;;;;9.75;8.77;;;22.60;67.70;;;;;;6229545;28;89129;-62
2023/12/31 01:59:24;;;;;;;9.57;8.68;;;22.70;68.00;;;;;;6232578;28;89113;-61
2023/12/31 02:02:28;;;;;;;9.60;8.60;;;22.70;68.10;;;;;;6229981;28;88898;-62
2023/12/31 02:05:29;;;;;;;9.80;8.80;;;22.60;68.00;;;;;;6234797;28;89107;-61
2023/12/31 02:08:32;;;;;;;9.98;8.93;;;22.60;68.10;;;;;;6231445;27;88413;-62
2023/12/31 02:11:35;;;;;;;10.40;9.25;;;22.60;68.20;;;;;;6227255;28;89091;-62
2023/12/31 02:14:37;;;;;;;10.35;9.00;;;22.60;68.30;;;;;;6226220;28;88826;-62
2023/12/31 02:17:40;;;;;;;9.82;8.93;;;22.60;68.40;;;;;;6229402;28;89095;-61
2023/12/31 02:20:44;;;;;;;10.73;9.70;;;22.60;68.40;;;;;;6234531;28;89065;-62
2023/12/31 02:23:46;;;;;;;10.25;9.00;;;22.60;68.50;;;;;;6230192;28;90340;-62
2023/12/31 02:26:49;;;;;;;9.57;8.68;;;22.60;68.50;;;;;;6225530;28;89050;-62
2023/12/31 02:29:51;;;;;;;10.38;9.38;;;22.60;68.60;;;;;;6232250;27;87986;-62
2023/12/31 02:32:53;;;;;;;9.98;8.98;;;22.60;68.60;;;;;;6225407;28;89158;-62
2023/12/31 02:35:55;;;;;;;9.95;8.95;;;22.60;68.60;;;;;;6221283;28;88999;-62
2023/12/31 02:38:57;;;;;;;10.48;9.48;;;22.60;68.80;;;;;;6226905;28;89471;-62
2023/12/31 02:42:00;;;;;;;9.93;8.77;;;22.60;69.60;;;;;;6227180;28;89080;-62
2023/12/31 02:45:02;;;;;;;9.88;8.95;;;22.60;68.80;;;;;;6230989;28;88344;-62
2023/12/31 02:48:05;;;;;;;9.77;8.88;;;22.60;68.80;;;;;;6229805;28;87163;-62
2023/12/31 02:51:09;;;;;;;10.52;9.35;;;22.60;68.90;;;;;;6228958;28;89581;-62
2023/12/31 02:54:11;;;;;;;10.63;9.50;;;22.60;68.90;;;;;;6227537;28;89999;-62
2023/12/31 02:57:14;;;;;;;10.27;9.27;;;22.60;69.10;;;;;;6226865;28;88933;-62
2023/12/31 03:00:17;;;;;;;10.07;9.07;;;22.50;69.00;;;;;;6228637;28;89611;-62
2023/12/31 03:03:19;;;;;;;10.43;9.40;;;22.50;69.10;;;;;;6232992;28;89178;-62
2023/12/31 03:06:21;;;;;;;11.45;9.50;;;22.50;69.30;;;;;;6219055;28;89133;-62
2023/12/31 03:09:23;;;;;;;10.05;9.05;;;22.50;69.30;;;;;;6228834;28;89003;-61
2023/12/31 03:12:26;;;;;;;10.00;9.00;;;22.50;69.20;;;;;;6232329;28;87986;-62
2023/12/31 03:15:28;;;;;;;10.18;9.18;;;22.50;69.30;;;;;;6230963;28;88395;-62
2023/12/31 03:18:30;;;;;;;9.98;9.07;;;22.50;69.40;;;;;;6228791;28;87934;-63
2023/12/31 03:21:32;;;;;;;10.05;9.05;;;22.50;69.50;;;;;;6224444;28;89467;-62
2023/12/31 03:24:34;;;;;;;10.65;9.55;;;22.50;69.50;;;;;;6226018;28;89867;-62
2023/12/31 03:27:37;;;;;;;10.40;9.23;;;22.50;69.60;;;;;;6222894;28;89619;-62
2023/12/31 03:30:39;;;;;;;11.18;9.93;;;22.40;69.50;;;;;;6228661;28;89056;-62
2023/12/31 03:33:41;;;;;;;10.60;9.60;;;22.40;69.60;;;;;;6229588;28;89158;-62
2023/12/31 03:36:43;;;;;;;10.38;9.20;;;22.40;69.60;;;;;;6227252;28;89136;-62
2023/12/31 03:39:45;;;;;;;9.85;8.85;;;22.50;69.80;;;;;;6226227;28;89424;-62
2023/12/31 03:42:48;;;;;;;9.60;8.70;;;22.50;69.80;;;;;;6233887;28;89076;-62
2023/12/31 03:45:50;;;;;;;9.85;8.95;;;22.50;69.80;;;;;;6227842;28;88509;-62
2023/12/31 03:48:52;;;;;;;10.70;9.60;;;22.50;69.80;;;;;;6228353;28;88956;-62
2023/12/31 03:51:54;;;;;;;10.13;9.02;;;22.50;69.80;;;;;;6227775;28;89072;-62
2023/12/31 03:54:56;;;;;;;10.13;9.13;;;22.40;69.80;;;;;;6227325;28;88871;-62
2023/12/31 03:58:00;;;;;;;9.43;8.52;;;22.50;69.80;;;;;;6228996;28;89269;-63
2023/12/31 04:01:02;;;;;;;9.77;8.82;;;22.50;69.80;;;;;;6229288;28;89096;-61
2023/12/31 04:04:04;;;;;;;9.52;8.63;;;22.40;69.80;;;;;;6228860;28;89307;-62
2023/12/31 04:07:06;;;;;;;9.77;8.88;;;22.40;69.80;;;;;;6226789;28;88993;-62
2023/12/31 04:10:09;;;;;;;10.45;9.35;;;22.40;69.80;;;;;;6220328;28;89401;-62
2023/12/31 04:13:12;;;;;;;10.13;9.10;;;22.40;69.80;;;;;;6218322;28;89516;-63
2023/12/31 04:16:14;;;;;;;9.38;8.50;;;22.30;69.80;;;;;;6227932;28;88524;-62
2023/12/31 04:19:16;;;;;;;9.57;8.68;;;22.30;69.90;;;;;;6228531;28;89426;-63
2023/12/31 04:22:18;;;;;;;10.30;9.30;;;22.40;70.00;;;;;;6217480;28;89274;-62
2023/12/31 04:25:20;;;;;;;10.30;9.10;;;22.40;70.00;;;;;;6226043;28;89982;-62
2023/12/31 04:28:23;;;;;;;9.95;8.95;;;22.30;69.90;;;;;;6229803;28;89121;-62
2023/12/31 04:31:26;;;;;;;9.50;8.60;;;22.40;69.80;;;;;;6229373;28;89170;-62
2023/12/31 04:34:28;;;;;;;9.63;8.73;;;22.30;69.80;;;;;;6216563;28;89687;-62
2023/12/31 04:37:31;;;;;;;10.13;9.13;;;22.30;69.70;;;;;;6223078;28;88772;-62
2023/12/31 04:40:33;;;;;;;9.50;8.60;;;22.40;69.60;;;;;;6223377;28;88630;-62
2023/12/31 04:43:36;;;;;;;9.50;8.50;;;22.40;69.50;;;;;;6217253;28;89424;-62
2023/12/31 04:46:38;;;;;;;10.45;9.13;;;22.40;69.40;;;;;;6227291;28;88313;-62
2023/12/31 04:49:40;;;;;;;9.75;8.75;;;22.40;69.40;;;;;;6217352;28;89020;-63
2023/12/31 04:52:42;;;;;;;9.43;8.43;;;22.50;69.60;;;;;;6227978;28;89179;-62
2023/12/31 04:55:44;;;;;;;9.20;8.30;;;22.50;69.50;;;;;;6223970;28;89979;-62
2023/12/31 04:58:50;;;;;;;9.57;8.63;;;22.50;69.40;;;;;;6229721;28;89104;-62
2023/12/31 05:01:52;;;;;;;8.90;8.00;;;22.50;69.30;;;;;;6223869;28;89086;-62
2023/12/31 05:04:54;;;;;;;9.15;8.25;;;22.60;69.30;;;;;;6218787;28;89124;-62
2023/12/31 05:07:56;;;;;;;9.10;7.97;;;22.60;69.10;;;;;;6214400;28;87853;-62
2023/12/31 05:10:58;;;;;;;9.18;8.27;;;22.60;69.10;;;;;;6213744;28;89029;-62
2023/12/31 05:14:02;;;;;;;9.05;8.15;;;22.60;69.10;;;;;;6223764;28;88242;-62
2023/12/31 05:17:04;;;;;;;8.75;7.90;;;22.60;68.90;;;;;;6225473;28;88229;-62
2023/12/31 05:20:09;;;;;;;9.02;8.13;;;22.70;68.90;;;;;;6232534;28;88953;-62
2023/12/31 05:23:11;;;;;;;8.65;7.68;;;22.70;68.80;;;;;;6233839;28;88993;-62
2023/12/31 05:26:13;;;;;;;8.10;7.40;;;22.70;68.80;;;;;;6232692;28;90179;-62
2023/12/31 05:29:16;;;;;;;8.73;7.85;;;22.80;68.80;;;;;;6226837;28;89179;-62
2023/12/31 05:32:18;;;;;;;8.45;7.65;;;22.80;68.70;;;;;;6230003;28;88952;-62
2023/12/31 05:35:20;;;;;;;8.02;7.32;;;22.80;68.60;;;;;;6234010;28;89278;-62
2023/12/31 05:38:23;;;;;;;8.13;7.35;;;22.80;68.60;;;;;;6220645;28;89347;-62
2023/12/31 05:41:25;;;;;;;8.05;7.25;;;22.90;68.60;;;;;;6231585;28;89215;-62
2023/12/31 05:44:28;;;;;;;8.98;8.07;;;22.80;68.50;;;;;;6226751;28;88905;-62
2023/12/31 05:47:30;;;;;;;8.60;7.78;;;22.90;68.50;;;;;;6220568;28;88451;-62
2023/12/31 05:50:32;;;;;;;8.10;7.30;;;22.90;68.50;;;;;;6232031;28;89062;-62
2023/12/31 05:53:34;;;;;;;8.00;7.20;;;22.90;68.40;;;;;;6231679;28;88075;-62
2023/12/31 05:56:36;;;;;;;7.40;6.70;;;23.00;68.50;;;;;;6219401;28;89903;-62
2023/12/31 05:59:39;;;;;;;7.95;7.25;;;23.00;68.50;;;;;;6230563;28;89264;-62
2023/12/31 06:02:41;;;;;;;8.52;7.63;;;23.00;68.50;;;;;;6230672;28;88955;-62
2023/12/31 06:05:44;;;;;;;7.93;7.13;;;23.00;68.40;;;;;;6230943;28;88888;-62
2023/12/31 06:08:46;;;;;;;8.15;7.35;;;23.00;69.30;;;;;;6220856;28;88998;-62
2023/12/31 06:11:47;;;;;;;7.65;6.85;;;23.00;68.40;;;;;;6210731;28;89066;-62
2023/12/31 06:14:51;;;;;;;8.27;7.47;;;23.00;68.80;;;;;;6222719;28;88979;-62
2023/12/31 06:17:53;;;;;;;7.45;6.75;;;23.00;69.50;;;;;;6227691;28;88501;-62
2023/12/31 06:20:55;;;;;;;7.32;6.50;;;23.00;69.00;;;;;;6223637;28;89042;-62
2023/12/31 06:23:57;;;;;;;7.30;6.60;;;23.00;68.80;;;;;;6226953;28;88875;-62
2023/12/31 06:26:59;;;;;;;7.32;6.63;;;23.00;68.70;;;;;;6225882;28;89041;-63
2023/12/31 06:30:03;;;;;;;7.70;6.90;;;23.00;68.60;;;;;;6231961;28;89066;-62
2023/12/31 06:33:05;;;;;;;7.45;6.65;;;23.00;68.60;;;;;;6232174;28;89728;-62
2023/12/31 06:36:08;;;;;;;7.65;6.95;;;23.10;68.60;;;;;;6230448;28;88957;-62
2023/12/31 06:39:10;;;;;;;7.88;7.07;;;23.10;68.60;;;;;;6218554;28;89004;-62
2023/12/31 06:42:12;;;;;;;8.27;7.38;;;23.10;68.50;;;;;;6215782;28;89401;-62
2023/12/31 06:45:15;;;;;;;7.75;7.05;;;23.10;68.50;;;;;;6227207;28;87946;-61
2023/12/31 06:48:17;;;;;;;8.35;7.50;;;23.10;68.50;;;;;;6223787;28;88394;-61
2023/12/31 06:51:19;;;;;;;8.20;7.43;;;23.10;68.50;;;;;;6225697;28;88609;-61
2023/12/31 06:54:21;;;;;;;8.75;7.85;;;23.10;68.40;;;;;;6228917;28;89229;-62
2023/12/31 06:57:23;;;;;;;8.90;8.00;;;23.10;68.40;;;;;;6223075;28;90053;-62
2023/12/31 07:00:27;;;;;;;8.57;7.68;;;23.10;68.40;;;;;;6229080;28;89577;-62
2023/12/31 07:03:29;;;;;;;9.00;8.10;;;23.20;68.50;;;;;;6228375;28;89064;-62
2023/12/31 07:06:31;;;;;;;9.25;8.32;;;23.20;68.50;;;;;;6220599;28;89418;-62
2023/12/31 07:09:33;;;;;;;9.30;8.40;;;23.20;68.50;;;;;;6219385;28;89087;-62
2023/12/31 07:12:35;;;;;;;9.52;8.52;;;23.20;68.60;;;;;;6228005;28;89199;-63
2023/12/31 07:15:38;;;;;;;9.23;8.32;;;23.20;68.70;;;;;;6224486;28;89043;-64
2023/12/31 07:18:41;;;;;;;11.02;9.00;;;23.10;68.90;;;;;;6227221;28;88390;-63
2023/12/31 07:21:43;;;;;;;10.80;8.90;;;23.20;68.90;;;;;;6223922;28;89267;-64
2023/12/31 07:24:45;;;;;;;9.23;8.30;;;23.20;69.00;;;;;;6227489;28;89188;-65
2023/12/31 07:27:47;;;;;;;11.40;9.90;;;23.20;69.40;;;;;;6227336;28;91714;-64
2023/12/31 07:30:50;;;;;;;12.82;9.05;;;23.30;71.00;;;;;;6220200;28;89165;-64
2023/12/31 07:33:52;;;;;;;13.98;9.27;;;23.30;73.50;;;;;;6227170;28;87947;-63
2023/12/31 07:36:54;;;;;;;11.43;9.20;;;23.30;72.30;;;;;;6229031;28;89104;-63
2023/12/31 07:39:57;;;;;;;11.68;8.93;;;23.30;72.60;;;;;;6218232;28;89540;-64
2023/12/31 07:42:59;;;;;;;9.80;8.80;;;23.30;72.70;;;;;;6224168;28;89163;-64
2023/12/31 07:46:03;;;;;;;10.10;9.10;;;23.40;72.60;;;;;;6222232;28;88993;-63
2023/12/31 07:49:04;;;;;;;10.30;9.02;;;23.40;72.40;;;;;;6229325;28;88288;-64
2023/12/31 07:52:07;;;;;;;10.20;9.18;;;23.40;72.20;;;;;;6220547;28;89054;-64
2023/12/31 07:55:09;;;;;;;9.30;8.40;;;23.40;71.90;;;;;;6230071;28;88886;-65
2023/12/31 07:58:11;;;;;;;11.82;9.35;;;23.50;71.80;;;;;;6220452;28;88853;-65
2023/12/31 08:01:15;;;;;;;10.05;8.98;;;23.50;71.80;;;;;;6221906;28;89578;-65
2023/12/31 08:04:17;;;;;;;9.95;8.75;;;23.50;71.60;;;;;;6230068;28;89155;-65
2023/12/31 08:07:19;;;;;;;10.07;9.07;;;23.50;71.60;;;;;;6229769;28;88376;-66
2023/12/31 08:10:22;;;;;;;10.30;9.07;;;23.60;71.60;;;;;;6227144;28;88974;-65
2023/12/31 08:13:24;;;;;;;9.77;8.77;;;23.60;71.60;;;;;;6230445;28;89419;-63
2023/12/31 08:16:27;;;;;;;10.73;9.27;;;23.60;71.40;;;;;;6230993;28;88725;-64
2023/12/31 08:19:29;;;;;;;9.70;8.70;;;23.60;71.60;;;;;;6228256;28;87677;-62
2023/12/31 08:22:31;;;;;;;24.10;14.82;;;23.60;71.90;;;;;;6228146;28;88816;-64
2023/12/31 08:25:33;;;;;;;29.00;16.88;;;23.60;73.00;;;;;;6228768;28;89091;-63
2023/12/31 08:28:35;;;;;;;25.67;15.73;;;23.70;72.80;;;;;;6224182;28;90441;-64
2023/12/31 08:31:39;;;;;;;28.30;16.13;;;23.70;73.00;;;;;;6225102;28;89708;-62
2023/12/31 08:34:40;;;;;;;29.55;16.63;;;23.70;72.70;;;;;;6231589;28;89298;-63
2023/12/31 08:37:43;;;;;;;32.95;16.98;;;23.70;73.30;;;;;;6233375;28;87909;-63
2023/12/31 08:40:45;;;;;;;26.88;15.73;;;23.70;72.40;;;;;;6220469;28;88126;-63
2023/12/31 08:43:47;;;;;;;28.60;15.80;;;23.80;72.90;;;;;;6220278;28;89037;-63
2023/12/31 08:46:50;;;;;;;27.20;15.30;;;23.80;73.00;;;;;;6229166;28;89051;-63
2023/12/31 08:49:52;;;;;;;30.05;14.90;;;23.80;72.50;;;;;;6221234;28;87214;-63
2023/12/31 08:52:55;;;;;;;29.23;14.95;;;23.80;72.40;;;;;;6230678;28;89059;-63
2023/12/31 08:55:57;;;;;;;25.75;14.02;;;23.80;72.30;;;;;;6232385;28;89337;-63
2023/12/31 08:58:59;;;;;;;24.38;14.38;;;23.80;72.30;;;;;;6230110;28;90343;-63
2023/12/31 09:02:02;;;;;;;21.35;13.20;;;23.80;72.40;;;;;;6222682;28;87941;-63
2023/12/31 09:05:05;;;;;;;23.15;13.18;;;23.90;72.30;;;;;;6227903;28;88995;-63
2023/12/31 09:08:07;;;;;;;19.02;12.65;;;23.90;72.20;;;;;;6228007;28;89129;-63
2023/12/31 09:11:09;;;;;;;21.38;12.38;;;23.90;72.20;;;;;;6227251;28;88989;-62
2023/12/31 09:14:11;;;;;;;22.50;12.95;;;23.90;72.10;;;;;;6232477;28;89332;-63
2023/12/31 09:17:14;;;;;;;23.05;13.65;;;23.90;72.10;;;;;;6227409;28;89147;-63
2023/12/31 09:20:16;;;;;;;26.13;13.85;;;23.90;72.20;;;;;;6231496;28;88299;-64
2023/12/31 09:23:19;;;;;;;25.02;13.00;;;24.00;72.30;;;;;;6225221;28;89084;-64
2023/12/31 09:26:21;;;;;;;23.60;13.15;;;24.00;72.30;;;;;;6220098;28;89177;-64
2023/12/31 09:29:23;;;;;;;22.70;12.68;;;24.10;72.50;;;;;;6227186;28;89974;-64
2023/12/31 09:32:26;;;;;;;20.25;12.00;;;24.00;72.30;;;;;;6227825;28;89302;-63
2023/12/31 09:35:28;;;;;;;19.67;12.18;;;24.10;72.50;;;;;;6226378;28;89408;-63
2023/12/31 09:38:30;;;;;;;17.33;11.25;;;24.00;72.70;;;;;;6231212;28;88976;-62
2023/12/31 09:41:33;;;;;;;56.05;23.25;;;24.10;72.70;;;;;;6229591;28;87951;-65
2023/12/31 09:44:35;;;;;;;119.45;40.83;;;24.10;83.10;;;;;;6230303;28;89082;-64
2023/12/31 09:47:40;;;;;;;287.10;103.15;;;24.20;90.30;;;;;;6230788;28;89311;-64
2023/12/31 09:50:43;;;;;;;398.02;207.55;;;24.30;91.80;;;;;;6223023;28;87176;-65
2023/12/31 09:53:47;;;;;;;119.80;55.20;;;24.30;91.80;;;;;;6225110;28;89150;-63
2023/12/31 09:56:51;;;;;;;82.97;37.38;;;24.20;83.00;;;;;;6226574;28;87946;-63
2023/12/31 09:59:55;;;;;;;67.65;31.00;;;24.20;80.60;;;;;;6228441;28;89924;-65
2023/12/31 10:02:58;;;;;;;55.65;26.13;;;24.10;78.40;;;;;;6227709;28;89112;-63
2023/12/31 10:06:00;;;;;;;47.08;23.02;;;24.10;76.90;;;;;;6227670;28;88705;-63
2023/12/31 10:09:03;;;;;;;38.95;19.85;;;24.20;77.50;;;;;;6228989;28;88987;-63
2023/12/31 10:12:06;;;;;;;43.50;20.58;;;24.10;79.80;;;;;;6210704;28;89011;-63
2023/12/31 10:15:09;;;;;;;35.58;17.73;;;24.10;77.70;;;;;;6226604;28;88697;-63
2023/12/31 10:18:12;;;;;;;31.50;16.30;;;24.10;77.60;;;;;;6231808;28;89206;-67
2023/12/31 10:21:15;;;;;;;22.13;12.52;;;24.10;75.90;;;;;;6230723;28;88306;-64
2023/12/31 10:24:27;;;;;;;22.92;11.60;;;24.10;75.20;;;;;;6229510;28;89005;-63
2023/12/31 10:27:29;;;;;;;22.80;11.77;;;24.10;74.50;;;;;;6220700;28;88854;-64
2023/12/31 10:30:31;;;;;;;21.38;11.25;;;24.10;73.70;;;;;;6230095;28;90053;-64
2023/12/31 10:33:36;;;;;;;21.23;11.68;;;24.20;75.10;;;;;;6223606;28;89352;-63
2023/12/31 10:36:38;;;;;;;19.50;10.73;;;24.30;77.80;;;;;;6223532;28;88928;-63
2023/12/31 10:39:41;;;;;;;19.40;10.27;;;24.30;75.80;;;;;;6221418;28;89155;-63
2023/12/31 10:42:47;;;;;;;16.35;10.02;;;24.40;76.60;;;;;;6211253;28;89382;-63
2023/12/31 10:45:50;;;;;;;14.30;9.32;;;24.40;73.10;;;;;;6229656;28;87916;-63
2023/12/31 10:49:03;;;;;;;19.17;9.48;;;24.30;72.30;;;;;;6227834;28;89319;-63
2023/12/31 10:52:06;;;;;;;12.77;7.30;;;24.40;71.60;;;;;;6224081;28;88239;-63
2023/12/31 10:55:12;;;;;;;14.40;7.88;;;24.30;68.10;;;;;;6222703;28;89049;-63
2023/12/31 10:58:14;;;;;;;13.90;8.10;;;24.30;70.30;;;;;;6230004;28;89043;-63
2023/12/31 11:01:17;;;;;;;13.43;8.68;;;24.30;70.30;;;;;;6230088;28;88706;-64
2023/12/31 11:04:25;;;;;;;14.02;7.85;;;24.30;70.60;;;;;;6224471;28;87956;-63
2023/12/31 11:07:27;;;;;;;13.63;8.15;;;24.30;71.00;;;;;;6226737;28;89152;-63
2023/12/31 11:10:30;;;;;;;14.25;8.60;;;24.20;71.20;;;;;;6231524;28;90956;-63
2023/12/31 11:13:34;;;;;;;13.77;8.43;;;24.20;71.50;;;;;;6229969;28;89097;-63
2023/12/31 11:16:51;;;;;;;10.73;8.07;;;24.20;71.60;;;;;;6229527;28;89149;-63
2023/12/31 11:20:31;;;;;;;11.38;8.30;;;24.30;71.80;;;;;;6230939;28;89026;-63
2023/12/31 11:23:41;;;;;;;10.93;7.72;;;24.30;72.00;;;;;;6216309;28;88301;-63
2023/12/31 11:26:43;;;;;;;11.27;7.97;;;24.30;72.10;;;;;;6230031;28;87971;-63
2023/12/31 11:29:47;;;;;;;12.68;8.45;;;24.30;72.20;;;;;;6228944;28;89462;-63
2023/12/31 11:32:49;;;;;;;12.07;8.65;;;24.30;72.30;;;;;;6222624;28;90234;-63
2023/12/31 11:35:53;;;;;;;12.75;8.80;;;24.20;72.30;;;;;;6221027;28;89134;-63
2023/12/31 11:38:59;;;;;;;10.95;8.30;;;24.30;72.40;;;;;;6230367;28;89108;-63
2023/12/31 11:42:08;;;;;;;10.55;8.50;;;24.30;72.50;;;;;;6232317;28;89178;-63
2023/12/31 11:45:40;;;;;;;10.57;7.82;;;24.30;72.50;;;;;;6231050;28;87920;-63
2023/12/31 11:48:42;;;;;;;16.75;10.18;;;24.30;72.60;;;;;;6227566;28;89406;-63
2023/12/31 11:51:53;;;;;;;13.40;8.65;;;24.30;72.60;;;;;;6230260;28;89004;-63
2023/12/31 11:55:01;;;;;;;11.65;8.35;;;24.30;72.60;;;;;;6229335;28;88603;-63
2023/12/31 11:58:03;;;;;;;10.70;8.43;;;24.30;72.70;;;;;;6227868;28;89145;-63
2023/12/31 12:01:05;;;;;;;10.77;8.43;;;24.30;72.60;;;;;;6230167;28;89168;-63
2023/12/31 12:04:07;;;;;;;11.18;8.63;;;24.30;72.70;;;;;;6229184;28;89960;-63
2023/12/31 12:07:11;;;;;;;11.18;8.27;;;24.30;72.70;;;;;;6227751;28;89167;-63
2023/12/31 12:10:13;;;;;;;11.45;8.32;;;24.30;72.80;;;;;;6217347;28;90148;-63
2023/12/31 12:13:16;;;;;;;10.18;8.13;;;24.30;72.70;;;;;;6229526;28;89309;-63
2023/12/31 12:16:18;;;;;;;9.45;8.02;;;24.30;72.80;;;;;;6230410;28;89062;-63
2023/12/31 12:19:20;;;;;;;10.93;8.48;;;24.30;72.80;;;;;;6230383;28;89868;-63
2023/12/31 12:22:24;;;;;;;11.02;8.80;;;24.30;72.80;;;;;;6230192;28;89120;-63
2023/12/31 12:25:26;;;;;;;9.95;8.23;;;24.30;72.80;;;;;;6230165;28;89557;-63
2023/12/31 12:28:28;;;;;;;10.50;8.57;;;24.30;72.80;;;;;;6229022;28;89087;-63
2023/12/31 12:31:35;;;;;;;10.40;8.65;;;24.30;72.80;;;;;;6220532;28;89106;-63
2023/12/31 12:34:37;;;;;;;10.55;8.57;;;24.30;72.80;;;;;;6229100;28;89890;-63
2023/12/31 12:37:41;;;;;;;10.38;8.40;;;24.30;72.80;;;;;;6229914;28;88497;-63
2023/12/31 12:40:43;;;;;;;11.80;8.98;;;24.30;72.80;;;;;;6219270;28;88744;-63
2023/12/31 12:43:45;;;;;;;10.05;8.55;;;24.30;72.80;;;;;;6206044;28;89243;-63
2023/12/31 12:46:50;;;;;;;9.48;8.02;;;24.30;72.80;;;;;;6229948;28;89082;-63
2023/12/31 12:49:52;;;;;;;9.45;8.18;;;24.40;72.80;;;;;;6217433;28;89245;-63
2023/12/31 12:52:55;;;;;;;9.43;7.93;;;24.40;72.80;;;;;;6229444;28;89059;-63
2023/12/31 12:55:57;;;;;;;10.10;8.95;;;24.30;72.70;;;;;;6210856;28;89264;-63
2023/12/31 12:58:59;;;;;;;10.18;8.57;;;24.30;72.70;;;;;;6211288;28;88996;-63
2023/12/31 13:02:02;;;;;;;10.25;8.57;;;24.30;72.80;;;;;;6228791;28;89054;-63
2023/12/31 13:05:04;;;;;;;9.52;8.52;;;24.30;72.80;;;;;;6227524;28;90512;-63
2023/12/31 13:08:08;;;;;;;11.30;8.45;;;24.40;72.80;;;;;;6229390;28;89062;-64
2023/12/31 13:11:10;;;;;;;10.05;8.18;;;24.40;72.80;;;;;;6216696;28;87964;-63
2023/12/31 13:14:12;;;;;;;9.50;8.45;;;24.30;72.80;;;;;;6219598;28;87963;-63
2023/12/31 13:17:14;;;;;;;9.75;8.30;;;24.30;72.80;;;;;;6228054;28;89120;-63
2023/12/31 13:20:16;;;;;;;10.63;9.02;;;24.30;72.80;;;;;;6231314;28;89222;-63
2023/12/31 13:23:20;;;;;;;11.15;8.52;;;24.30;72.70;;;;;;6233033;28;89002;-63
2023/12/31 13:26:22;;;;;;;9.40;8.40;;;24.30;72.60;;;;;;6235015;28;88416;-63
2023/12/31 13:29:24;;;;;;;8.90;8.00;;;24.30;72.70;;;;;;6232818;28;91097;-63
2023/12/31 13:32:26;;;;;;;9.18;7.97;;;24.40;72.70;;;;;;6232207;28;89087;-63
2023/12/31 13:35:28;;;;;;;9.20;8.30;;;24.30;72.60;;;;;;6224915;28;90060;-63
2023/12/31 13:38:31;;;;;;;8.27;7.35;;;24.30;72.60;;;;;;6228117;28;89019;-63
2023/12/31 13:41:34;;;;;;;9.20;8.20;;;24.40;72.70;;;;;;6228136;28;89332;-63
2023/12/31 13:44:37;;;;;;;8.40;7.57;;;24.30;72.50;;;;;;6226898;28;89000;-63
2023/12/31 13:47:39;;;;;;;9.07;8.10;;;24.30;72.50;;;;;;6232472;28;89017;-63
2023/12/31 13:50:41;;;;;;;9.77;8.45;;;24.40;72.50;;;;;;6225680;28;89024;-63
2023/12/31 13:53:45;;;;;;;8.93;7.93;;;24.30;72.40;;;;;;6230718;28;89094;-63
2023/12/31 13:56:47;;;;;;;8.85;7.97;;;24.40;72.40;;;;;;6234752;28;89103;-63
2023/12/31 13:59:49;;;;;;;8.40;7.50;;;24.40;72.40;;;;;;6220161;28;89445;-63
2023/12/31 14:02:51;;;;;;;8.55;7.68;;;24.40;72.40;;;;;;6231889;28;89156;-63
2023/12/31 14:05:52;;;;;;;8.10;7.30;;;24.40;72.40;;;;;;6231084;28;89956;-63
2023/12/31 14:08:56;;;;;;;8.77;7.88;;;24.40;72.30;;;;;;6226719;28;88958;-63
2023/12/31 14:11:58;;;;;;;8.07;7.28;;;24.30;72.30;;;;;;6224845;28;89040;-62
2023/12/31 14:15:00;;;;;;;8.52;7.63;;;24.30;72.30;;;;;;6231926;28;88014;-63
2023/12/31 14:18:03;;;;;;;9.05;7.80;;;24.40;72.30;;;;;;6233473;28;89095;-63
2023/12/31 14:21:05;;;;;;;8.65;7.72;;;24.40;72.30;;;;;;6232681;28;91009;-63
2023/12/31 14:24:11;;;;;;;9.27;7.68;;;24.40;72.30;;;;;;6231052;28;87961;-63
2023/12/31 14:27:13;;;;;;;8.30;7.50;;;24.40;72.30;;;;;;6231290;28;88270;-63
2023/12/31 14:30:15;;;;;;;7.85;7.10;;;24.40;72.30;;;;;;6229203;28;89452;-63
2023/12/31 14:33:17;;;;;;;8.10;7.30;;;24.40;72.20;;;;;;6230798;28;89057;-63
2023/12/31 14:36:20;;;;;;;7.93;7.22;;;24.40;72.20;;;;;;6229279;28;90082;-61
2023/12/31 14:39:25;;;;;;;7.70;6.90;;;24.40;72.20;;;;;;6221290;28;89064;-61
2023/12/31 14:42:28;;;;;;;8.02;7.22;;;24.40;72.10;;;;;;6231459;28;88197;-63
2023/12/31 14:45:31;;;;;;;8.02;7.22;;;24.40;72.00;;;;;;6230360;28;88244;-61
2023/12/31 14:48:34;;;;;;;7.55;6.85;;;24.40;71.80;;;;;;6232476;28;88734;-61
2023/12/31 14:51:38;;;;;;;7.43;6.72;;;24.40;71.80;;;;;;6219288;28;88117;-61
2023/12/31 14:54:43;;;;;;;7.38;6.68;;;24.40;71.60;;;;;;6231341;28;88593;-61
2023/12/31 14:57:46;;;;;;;7.80;7.00;;;24.50;71.60;;;;;;6231176;28;87802;-61
2023/12/31 15:00:49;;;;;;;7.50;6.70;;;24.50;71.60;;;;;;6229676;28;88168;-61
2023/12/31 15:03:52;;;;;;;7.40;6.70;;;24.50;71.50;;;;;;6228054;28;88169;-61
2023/12/31 15:06:54;;;;;;;8.20;7.38;;;24.50;71.50;;;;;;6231789;28;88953;-62
2023/12/31 15:09:58;;;;;;;8.18;7.10;;;24.50;71.50;;;;;;6238163;28;89185;-61
2023/12/31 15:13:05;;;;;;;7.80;6.35;;;24.50;71.60;;;;;;6230320;28;89047;-62
2023/12/31 15:16:07;;;;;;;8.75;6.78;;;24.40;71.90;;;;;;6238643;28;87876;-63
2023/12/31 15:19:09;;;;;;;8.07;6.63;;;24.40;72.60;;;;;;6231169;28;89112;-63
2023/12/31 15:22:11;;;;;;;8.13;6.72;;;24.40;72.80;;;;;;6234035;28;88014;-62
2023/12/31 15:25:15;;;;;;;9.93;6.90;;;24.40;73.30;;;;;;6236751;27;89341;-63
2023/12/31 15:28:17;;;;;;;7.90;6.28;;;24.40;74.40;;;;;;6237328;28;88472;-63
2023/12/31 15:31:19;;;;;;;9.43;7.82;;;24.50;75.00;;;;;;6233185;28;89143;-63
2023/12/31 15:34:21;;;;;;;9.60;6.80;;;24.50;80.30;;;;;;6237479;27;91802;-64
2023/12/31 15:37:23;;;;;;;8.35;6.90;;;24.50;75.40;;;;;;6242010;28;90346;-64
2023/12/31 15:40:26;;;;;;;7.43;6.63;;;24.50;75.20;;;;;;6227241;28;90879;-65
2023/12/31 15:43:28;;;;;;;7.95;7.00;;;24.50;74.00;;;;;;6232022;28;89021;-64